Time;durP1;ratioP1;P1;durP2;ratioP2;P2;SDS_P1;SDS_P2;PMS_P1;PMS_P2;Temp;Humidity;BMP_temperature;BMP_pressure;BME280_temperature;BME280_humidity;BME280_pressure;Samples;Min_cycle;Max_cycle;Signal;HPM_P1;HPM_P2
2021/12/27 00:00:10;;;;;;;4.93;3.67;;;;;;;19.32;40.17;98291.16;5131553;27;20539;-57
2021/12/27 00:02:36;;;;;;;5.28;3.80;;;;;;;19.32;40.05;98289.19;5131456;27;20486;-57
2021/12/27 00:05:02;;;;;;;5.85;4.07;;;;;;;19.32;40.08;98291.94;5131347;27;20031;-57
2021/12/27 00:07:28;;;;;;;5.60;3.90;;;;;;;19.32;40.18;98293.94;5131280;27;20039;-57
2021/12/27 00:09:54;;;;;;;4.82;3.42;;;;;;;19.33;40.19;98289.97;5131329;27;20039;-57
2021/12/27 00:12:20;;;;;;;5.10;3.47;;;;;;;19.30;40.16;98285.22;5131040;27;20137;-66
2021/12/27 00:14:45;;;;;;;6.57;3.60;;;;;;;19.32;39.99;98278.09;5131170;27;20130;-64
2021/12/27 00:17:10;;;;;;;5.15;3.60;;;;;;;19.33;40.12;98273.34;5131165;28;20442;-66
2021/12/27 00:19:36;;;;;;;5.10;3.67;;;;;;;19.32;40.03;98269.78;5130931;28;20043;-66
2021/12/27 00:22:01;;;;;;;5.32;3.58;;;;;;;19.35;39.92;98270.97;5131042;27;20046;-57
2021/12/27 00:24:27;;;;;;;5.18;3.65;;;;;;;19.32;39.95;98263.44;5131235;27;20068;-57
2021/12/27 00:26:52;;;;;;;5.72;3.92;;;;;;;19.34;39.94;98267.38;5129652;28;20043;-57
2021/12/27 00:29:18;;;;;;;5.40;3.65;;;;;;;19.34;39.93;98274.91;5130724;28;20514;-57
2021/12/27 00:31:43;;;;;;;4.80;3.40;;;;;;;19.34;39.82;98263.81;5131082;28;20073;-57
2021/12/27 00:34:09;;;;;;;5.00;3.45;;;;;;;19.35;39.81;98260.66;5130942;27;20051;-67
2021/12/27 00:36:35;;;;;;;4.80;3.42;;;;;;;19.34;39.84;98261.06;5130771;28;20427;-66
2021/12/27 00:39:00;;;;;;;5.45;3.65;;;;;;;19.34;39.79;98249.97;5130769;27;20538;-66
2021/12/27 00:41:26;;;;;;;5.35;3.75;;;;;;;19.32;39.86;98244.81;5130846;27;20040;-66
2021/12/27 00:43:51;;;;;;;4.68;3.30;;;;;;;19.34;39.89;98241.66;5130683;27;20042;-66
2021/12/27 00:46:17;;;;;;;4.28;3.00;;;;;;;19.32;39.77;98246.81;5130645;27;20035;-66
2021/12/27 00:48:42;;;;;;;4.85;3.20;;;;;;;19.33;39.78;98234.53;5130714;28;20540;-57
2021/12/27 00:51:09;;;;;;;5.28;3.28;;;;;;;19.30;39.77;98238.88;5130404;28;20039;-57
2021/12/27 00:53:35;;;;;;;4.63;3.20;;;;;;;19.33;39.75;98237.28;5130850;27;20043;-57
2021/12/27 00:56:01;;;;;;;4.72;2.90;;;;;;;19.33;39.75;98237.28;5130789;27;20058;-57
2021/12/27 00:58:26;;;;;;;4.55;3.10;;;;;;;19.33;39.67;98240.84;5130595;27;20446;-57
2021/12/27 01:00:52;;;;;;;4.32;2.95;;;;;;;19.33;39.78;98235.31;5130587;27;20418;-57
2021/12/27 01:03:20;;;;;;;4.15;3.17;;;;;;;19.32;39.81;98236.50;5130445;27;20122;-57
2021/12/27 01:05:46;;;;;;;4.53;3.08;;;;;;;19.32;39.82;98232.94;5130452;27;20074;-57
2021/12/27 01:08:11;;;;;;;5.43;3.15;;;;;;;19.33;39.68;98227.00;5130477;27;20406;-57
2021/12/27 01:11:00;;;;;;;5.28;3.40;;;;;;;19.35;39.59;98232.94;5130402;27;20122;-57
2021/12/27 01:16:10;;;;;;;4.40;3.15;;;;;;;19.34;39.63;98222.25;5133848;27;20042;-66
2021/12/27 01:18:38;;;;;;;4.22;3.05;;;;;;;19.36;39.75;98214.31;5133980;27;20053;-66
2021/12/27 01:21:04;;;;;;;4.22;3.00;;;;;;;19.36;39.50;98212.38;5134047;27;20453;-66
2021/12/27 01:23:29;;;;;;;4.78;3.28;;;;;;;19.38;39.52;98209.19;5133662;28;20039;-57
2021/12/27 01:25:55;;;;;;;4.47;3.20;;;;;;;19.33;39.60;98198.47;5133822;28;20130;-57
2021/12/27 01:28:20;;;;;;;4.40;3.03;;;;;;;19.37;39.60;98199.28;5134051;27;20126;-57
2021/12/27 01:30:50;;;;;;;4.55;2.85;;;;;;;19.35;39.46;98205.19;5133745;27;20051;-57
2021/12/27 01:33:17;;;;;;;4.20;2.85;;;;;;;19.35;39.67;98196.88;5133606;27;20046;-57
2021/12/27 01:35:43;;;;;;;5.57;3.13;;;;;;;19.34;39.59;98203.63;5133784;27;20053;-57
2021/12/27 01:38:11;;;;;;;3.75;2.45;;;;;;;19.33;39.46;98196.50;5133791;27;20488;-57
2021/12/27 01:40:37;;;;;;;4.47;2.83;;;;;;;19.34;39.46;98191.75;5133888;27;20066;-57
2021/12/27 01:43:19;;;;;;;4.22;2.92;;;;;;;19.34;39.50;98191.75;5133724;27;20122;-57
2021/12/27 01:45:49;;;;;;;4.95;2.72;;;;;;;19.34;39.39;98191.75;5133656;27;20071;-57
2021/12/27 01:48:17;;;;;;;4.72;3.17;;;;;;;19.34;39.50;98186.19;5133650;27;20043;-57
2021/12/27 01:50:45;;;;;;;4.75;3.08;;;;;;;19.30;39.54;98168.78;5133429;27;20067;-57
2021/12/27 01:53:11;;;;;;;3.90;2.65;;;;;;;19.34;39.41;98175.09;5133391;27;20053;-57
2021/12/27 01:55:37;;;;;;;3.70;2.65;;;;;;;19.33;39.54;98173.53;5133412;27;20503;-57
2021/12/27 01:58:03;;;;;;;4.63;3.15;;;;;;;19.34;39.39;98170.34;5133346;27;20050;-57
2021/12/27 02:00:30;;;;;;;4.63;3.25;;;;;;;19.34;39.55;98177.88;5133356;27;20036;-57
2021/12/27 02:02:55;;;;;;;4.93;3.60;;;;;;;19.33;39.21;98179.84;5133208;27;20043;-57
2021/12/27 02:05:21;;;;;;;4.38;3.10;;;;;;;19.34;39.15;98175.09;5133331;27;20043;-57
2021/12/27 02:07:47;;;;;;;4.53;3.20;;;;;;;19.34;39.27;98173.13;5133234;27;20045;-57
2021/12/27 02:10:13;;;;;;;4.45;2.97;;;;;;;19.32;39.27;98161.66;5133187;27;20070;-57
2021/12/27 02:12:39;;;;;;;4.00;2.90;;;;;;;19.34;39.21;98166.78;5133034;27;20047;-57
2021/12/27 02:15:09;;;;;;;3.78;2.80;;;;;;;19.33;39.23;98160.44;5133153;27;20126;-66
2021/12/27 02:17:41;;;;;;;4.97;3.25;;;;;;;19.33;39.37;98156.91;5133165;27;20042;-66
2021/12/27 02:20:18;;;;;;;3.88;2.97;;;;;;;19.31;39.15;98148.19;5133035;28;20141;-66
2021/12/27 02:22:45;;;;;;;4.05;3.05;;;;;;;19.33;39.10;98140.25;5132911;27;20076;-66
2021/12/27 02:25:11;;;;;;;4.40;3.03;;;;;;;19.30;39.32;98143.84;5132250;27;20047;-66
2021/12/27 02:27:37;;;;;;;4.13;2.97;;;;;;;19.31;39.26;98146.22;5132334;27;20057;-66
2021/12/27 02:30:09;;;;;;;4.25;3.35;;;;;;;19.32;39.25;98133.91;5132987;27;20046;-66
2021/12/27 02:32:56;;;;;;;3.53;2.55;;;;;;;19.33;39.40;98137.47;5132784;27;20044;-66
2021/12/27 02:35:25;;;;;;;4.47;3.13;;;;;;;19.31;39.10;98139.88;5132295;27;20522;-66
2021/12/27 02:37:52;;;;;;;4.30;3.10;;;;;;;19.34;39.05;98141.84;5132788;27;20054;-66
2021/12/27 02:40:19;;;;;;;4.32;3.08;;;;;;;19.34;39.08;98139.06;5132819;27;20126;-66
2021/12/27 02:43:13;;;;;;;3.92;2.70;;;;;;;19.33;39.25;98137.47;5132633;27;20043;-66
2021/12/27 02:45:44;;;;;;;4.20;3.05;;;;;;;19.31;38.99;98134.31;5132613;27;20051;-66
2021/12/27 02:48:12;;;;;;;4.00;3.00;;;;;;;19.32;39.01;98130.34;5132669;27;20034;-66
2021/12/27 02:50:39;;;;;;;3.67;2.72;;;;;;;19.33;38.99;98132.72;5132480;28;20111;-67
2021/12/27 02:53:06;;;;;;;4.45;3.30;;;;;;;19.33;39.12;98129.16;5132693;27;20122;-66
2021/12/27 02:55:32;;;;;;;4.45;2.90;;;;;;;19.32;39.16;98133.13;5132450;27;20043;-66
2021/12/27 02:57:58;;;;;;;3.97;3.10;;;;;;;19.32;38.87;98127.59;5132344;27;20047;-66
2021/12/27 03:00:27;;;;;;;4.38;2.90;;;;;;;19.32;38.90;98128.38;5132275;27;20058;-66
2021/12/27 03:02:55;;;;;;;3.63;2.67;;;;;;;19.31;39.02;98131.56;5132142;27;20463;-67
2021/12/27 03:05:22;;;;;;;4.30;3.08;;;;;;;19.31;38.98;98114.91;5132290;27;20502;-66
2021/12/27 03:07:50;;;;;;;4.13;3.20;;;;;;;19.32;38.96;98119.28;5132240;27;20047;-66
2021/12/27 03:10:19;;;;;;;3.78;2.67;;;;;;;19.31;38.82;98112.16;5130793;28;20043;-66
2021/12/27 03:12:47;;;;;;;4.53;3.00;;;;;;;19.29;38.68;98100.63;5132145;27;20035;-66
2021/12/27 03:15:15;;;;;;;3.60;2.65;;;;;;;19.32;39.18;98113.72;5132025;27;20046;-66
2021/12/27 03:17:44;;;;;;;3.38;2.28;;;;;;;19.31;38.77;98110.16;5132183;27;20507;-66
2021/12/27 03:20:10;;;;;;;3.72;2.60;;;;;;;19.31;38.73;98082.44;5132033;27;20448;-66
2021/12/27 03:22:40;;;;;;;4.20;2.90;;;;;;;19.32;38.89;98091.53;5131990;27;20521;-66
2021/12/27 03:25:11;;;;;;;3.33;2.67;;;;;;;19.29;38.70;98092.31;5132021;27;20043;-66
2021/12/27 03:27:37;;;;;;;3.75;2.70;;;;;;;19.30;38.64;98094.72;5132012;27;20092;-66
2021/12/27 03:30:09;;;;;;;3.95;2.90;;;;;;;19.28;38.57;98077.66;5131944;27;20124;-57
2021/12/27 03:32:36;;;;;;;3.67;2.70;;;;;;;19.29;38.65;98084.81;5131861;28;20039;-57
2021/12/27 03:35:10;;;;;;;3.88;2.95;;;;;;;19.31;38.43;98076.09;5132064;27;20498;-57
2021/12/27 03:37:38;;;;;;;3.95;2.78;;;;;;;19.29;38.61;98075.69;5131480;27;20057;-57
2021/12/27 03:40:06;;;;;;;3.65;2.60;;;;;;;19.32;38.64;98069.38;5128198;28;20074;-57
2021/12/27 03:42:32;;;;;;;3.72;2.70;;;;;;;19.32;38.63;98069.38;5131569;27;20072;-57
2021/12/27 03:44:57;;;;;;;3.72;2.65;;;;;;;19.29;38.56;98078.47;5131442;28;20044;-57
2021/12/27 03:47:23;;;;;;;3.58;2.58;;;;;;;19.32;38.51;98078.47;5131573;27;20453;-57
2021/12/27 03:49:49;;;;;;;3.60;2.53;;;;;;;19.32;38.61;98075.69;5131609;27;20047;-57
2021/12/27 03:52:14;;;;;;;4.07;2.80;;;;;;;19.32;38.35;98086.00;5131431;28;20406;-57
2021/12/27 03:54:39;;;;;;;3.50;2.60;;;;;;;19.31;38.72;98087.97;5131623;28;20450;-57
2021/12/27 03:57:05;;;;;;;3.38;2.53;;;;;;;19.31;38.43;98087.19;5131773;28;20039;-57
2021/12/27 04:02:08;;;;;;;4.10;2.97;;;;;;;19.28;38.39;98065.78;5131304;28;20043;-57
2021/12/27 04:04:33;;;;;;;3.22;2.53;;;;;;;19.29;38.37;98061.81;5131391;27;20043;-57
2021/12/27 04:06:59;;;;;;;3.80;2.70;;;;;;;19.31;38.64;98071.34;5131277;28;20508;-57
2021/12/27 04:09:25;;;;;;;3.30;2.50;;;;;;;19.32;38.36;98069.38;5131140;27;20419;-57
2021/12/27 04:11:51;;;;;;;3.72;2.47;;;;;;;19.31;38.46;98065.81;5131125;27;20503;-57
2021/12/27 04:14:16;;;;;;;3.40;2.50;;;;;;;19.31;38.52;98070.56;5131135;27;20108;-64
2021/12/27 04:16:41;;;;;;;2.95;2.40;;;;;;;19.32;38.29;98066.59;5131152;27;20100;-65
2021/12/27 04:19:07;;;;;;;3.67;2.42;;;;;;;19.31;38.30;98062.25;5131017;28;20043;-66
2021/12/27 04:21:32;;;;;;;3.35;2.58;;;;;;;19.32;38.17;98061.06;5131025;27;20049;-66
2021/12/27 04:23:58;;;;;;;3.25;2.45;;;;;;;19.32;38.49;98059.06;5130922;27;20107;-66
2021/12/27 04:26:23;;;;;;;3.70;2.60;;;;;;;19.32;38.38;98047.97;5131058;28;20114;-66
2021/12/27 04:28:50;;;;;;;3.28;2.40;;;;;;;19.31;38.28;98043.63;5130717;27;20043;-66
2021/12/27 04:31:16;;;;;;;3.30;2.28;;;;;;;19.31;38.48;98043.63;5130617;27;20072;-57
2021/12/27 04:33:41;;;;;;;3.25;2.38;;;;;;;19.32;38.61;98047.19;5130471;28;20035;-57
2021/12/27 04:36:07;;;;;;;3.67;2.40;;;;;;;19.34;38.66;98044.81;5130884;27;20039;-57
2021/12/27 04:38:33;;;;;;;3.58;2.53;;;;;;;19.32;38.34;98047.97;5130840;27;21080;-57
2021/12/27 04:40:59;;;;;;;3.88;2.40;;;;;;;19.32;38.33;98038.88;5130791;27;20047;-57
2021/12/27 04:43:25;;;;;;;3.03;2.15;;;;;;;19.31;38.43;98043.63;5130777;27;20119;-57
2021/12/27 04:45:51;;;;;;;2.83;1.80;;;;;;;19.31;38.45;98042.84;5130701;27;20567;-57
2021/12/27 04:48:19;;;;;;;3.00;2.20;;;;;;;19.32;38.42;98047.97;5130220;27;20093;-57
2021/12/27 04:50:44;;;;;;;3.42;2.50;;;;;;;19.33;38.52;98037.69;5130374;27;20562;-57
2021/12/27 04:53:10;;;;;;;3.65;2.60;;;;;;;19.35;38.46;98029.75;5130843;27;20073;-57
2021/12/27 04:55:36;;;;;;;2.90;2.10;;;;;;;19.34;38.32;98017.06;5130670;27;20050;-57
2021/12/27 04:58:04;;;;;;;3.30;2.50;;;;;;;19.34;38.77;98025.41;5130492;27;20449;-57
2021/12/27 05:00:29;;;;;;;3.42;2.22;;;;;;;19.32;38.28;98022.25;5130712;27;20049;-57
2021/12/27 05:02:55;;;;;;;3.58;2.30;;;;;;;19.33;38.45;98021.03;5130262;27;20035;-57
2021/12/27 05:05:20;;;;;;;4.28;2.08;;;;;;;19.31;38.41;98009.56;5130373;28;20051;-57
2021/12/27 05:07:47;;;;;;;3.08;2.20;;;;;;;19.32;38.47;98011.16;5130507;27;20414;-57
2021/12/27 05:10:16;;;;;;;3.15;2.17;;;;;;;19.31;38.41;98020.66;5130607;27;20043;-57
2021/12/27 05:12:42;;;;;;;3.55;2.17;;;;;;;19.29;38.52;98018.28;5130683;27;20106;-57
2021/12/27 05:15:08;;;;;;;2.88;2.08;;;;;;;19.31;38.51;98027.00;5130478;27;20074;-57
2021/12/27 05:17:33;;;;;;;2.65;1.90;;;;;;;19.29;38.47;98023.84;5130226;27;20062;-57
2021/12/27 05:19:59;;;;;;;3.55;2.35;;;;;;;19.30;38.29;98021.84;5130273;27;20816;-57
2021/12/27 05:22:27;;;;;;;3.35;2.25;;;;;;;19.28;38.49;98025.00;5129937;27;20051;-57
2021/12/27 05:24:53;;;;;;;3.22;2.20;;;;;;;19.29;38.31;98025.78;5129814;27;20035;-57
2021/12/27 05:27:18;;;;;;;3.13;2.30;;;;;;;19.32;38.30;98022.25;5130266;27;20046;-66
2021/12/27 05:29:43;;;;;;;3.25;2.30;;;;;;;19.33;38.43;98023.81;5130030;28;20043;-66
2021/12/27 05:32:09;;;;;;;3.78;2.30;;;;;;;19.32;38.32;98017.47;5130033;28;20043;-66
2021/12/27 05:34:35;;;;;;;2.70;1.90;;;;;;;19.32;38.51;98013.91;5111541;28;20044;-66
2021/12/27 05:37:01;;;;;;;2.88;2.10;;;;;;;19.29;38.28;98009.16;5109645;28;20453;-67
2021/12/27 05:39:27;;;;;;;3.20;2.30;;;;;;;19.28;38.18;98013.13;5109591;28;20507;-66
2021/12/27 05:41:52;;;;;;;3.65;2.17;;;;;;;19.31;38.73;98015.91;5109461;28;20123;-66
2021/12/27 05:44:18;;;;;;;3.22;2.30;;;;;;;19.30;38.45;98005.22;5109780;28;20408;-57
2021/12/27 05:46:44;;;;;;;3.65;2.20;;;;;;;19.29;38.43;97998.88;5109391;28;20044;-57
2021/12/27 05:49:09;;;;;;;2.78;1.98;;;;;;;19.30;38.27;98000.47;5109633;28;20047;-57
2021/12/27 05:51:36;;;;;;;3.35;2.10;;;;;;;19.28;38.28;97988.97;5109361;28;20055;-57
2021/12/27 05:54:05;;;;;;;3.53;2.45;;;;;;;19.29;38.36;97992.53;5109385;28;20060;-57
2021/12/27 05:56:31;;;;;;;3.22;2.10;;;;;;;19.29;38.40;97982.25;5109283;28;20534;-57
2021/12/27 05:58:56;;;;;;;3.40;2.03;;;;;;;19.29;38.42;97984.22;5109202;28;20048;-57
2021/12/27 06:01:21;;;;;;;3.33;2.30;;;;;;;19.27;38.40;97981.06;5111688;28;20043;-57
2021/12/27 06:03:47;;;;;;;3.53;2.10;;;;;;;19.27;38.50;97984.59;5112452;28;20055;-57
2021/12/27 06:06:12;;;;;;;3.00;2.10;;;;;;;19.28;38.36;97977.88;5112888;28;20511;-57
2021/12/27 06:08:38;;;;;;;2.92;1.95;;;;;;;19.28;38.59;97977.09;5112818;28;20042;-57
2021/12/27 06:11:03;;;;;;;3.25;2.22;;;;;;;19.29;38.58;97982.25;5112492;28;20060;-57
2021/12/27 06:13:29;;;;;;;2.95;2.22;;;;;;;19.30;38.31;97980.28;5112415;28;20044;-57
2021/12/27 06:15:54;;;;;;;3.70;2.40;;;;;;;19.30;38.44;97969.19;5112588;28;20040;-57
2021/12/27 06:18:20;;;;;;;3.45;2.28;;;;;;;19.29;38.48;97979.47;5112501;28;20047;-57
2021/12/27 06:20:46;;;;;;;3.10;2.08;;;;;;;19.29;38.11;97968.38;5112398;28;20044;-57
2021/12/27 06:23:12;;;;;;;3.55;2.30;;;;;;;19.29;38.43;97956.47;5112249;28;20048;-57
2021/12/27 06:25:37;;;;;;;3.08;1.98;;;;;;;19.29;38.48;97951.75;5112504;28;20471;-57
2021/12/27 06:28:03;;;;;;;2.85;1.90;;;;;;;19.29;38.43;97937.06;5112344;28;20044;-57
2021/12/27 06:30:28;;;;;;;3.20;2.25;;;;;;;19.28;38.44;97927.19;5112425;28;20051;-57
2021/12/27 06:32:54;;;;;;;3.20;2.25;;;;;;;19.25;38.58;97935.13;5112302;28;20126;-57
2021/12/27 06:35:19;;;;;;;3.42;2.35;;;;;;;19.27;38.26;97937.47;5112162;28;20044;-57
2021/12/27 06:37:46;;;;;;;3.60;2.55;;;;;;;19.30;38.13;97935.91;5112138;28;20081;-57
2021/12/27 06:40:14;;;;;;;3.10;2.20;;;;;;;19.29;38.49;97949.00;5112323;28;20092;-57
2021/12/27 06:42:40;;;;;;;3.45;2.47;;;;;;;19.27;38.12;97931.16;5112096;28;20130;-66
2021/12/27 06:45:06;;;;;;;3.45;2.33;;;;;;;19.27;38.14;97917.28;5111982;28;20403;-66
2021/12/27 06:47:32;;;;;;;3.63;2.40;;;;;;;19.30;38.51;97914.53;5112144;28;20496;-57
2021/12/27 06:49:57;;;;;;;3.20;2.08;;;;;;;19.29;38.31;97917.66;5112407;28;20075;-57
2021/12/27 06:52:24;;;;;;;2.80;1.92;;;;;;;19.28;38.31;97910.56;5112041;28;20050;-57
2021/12/27 06:54:50;;;;;;;3.08;2.15;;;;;;;19.28;38.16;97916.88;5111574;28;20048;-57
2021/12/27 06:57:18;;;;;;;3.25;2.20;;;;;;;19.29;38.65;97924.03;5111925;28;20088;-57
2021/12/27 06:59:44;;;;;;;2.97;2.00;;;;;;;19.28;38.19;97916.09;5111805;28;20474;-57
2021/12/27 07:02:09;;;;;;;3.80;2.20;;;;;;;19.31;38.57;97912.53;5111606;28;20454;-57
2021/12/27 07:04:35;;;;;;;3.38;2.40;;;;;;;19.30;38.20;97919.28;5111765;28;20039;-57
2021/12/27 07:07:00;;;;;;;2.92;2.00;;;;;;;19.29;38.49;97907.41;5111857;28;20522;-57
2021/12/27 07:09:26;;;;;;;3.67;2.47;;;;;;;19.32;38.17;97919.66;5111819;28;20131;-57
2021/12/27 07:11:52;;;;;;;3.00;2.00;;;;;;;19.31;38.18;97909.78;5110686;28;20044;-57
2021/12/27 07:14:17;;;;;;;3.30;2.03;;;;;;;19.30;38.04;97903.44;5111855;28;20047;-57
2021/12/27 07:16:43;;;;;;;3.13;2.08;;;;;;;19.31;38.05;97893.91;5111456;28;20385;-57
2021/12/27 07:19:09;;;;;;;2.88;1.90;;;;;;;19.32;38.55;97905.81;5111544;28;20126;-57
2021/12/27 07:21:34;;;;;;;2.55;1.88;;;;;;;19.29;38.21;97895.50;5111200;28;20032;-57
2021/12/27 07:23:59;;;;;;;3.35;1.88;;;;;;;19.29;38.19;97904.63;5111484;28;20444;-57
2021/12/27 07:26:25;;;;;;;3.40;2.22;;;;;;;19.28;38.37;97894.72;5111620;28;20063;-57
2021/12/27 07:28:51;;;;;;;3.08;2.10;;;;;;;19.29;38.35;97899.09;5111501;28;20039;-57
2021/12/27 07:31:16;;;;;;;3.35;2.10;;;;;;;19.28;38.27;97894.72;5111386;28;20036;-57
2021/12/27 07:33:41;;;;;;;2.70;1.85;;;;;;;19.27;38.28;97903.44;5111429;28;20050;-57
2021/12/27 07:36:10;;;;;;;3.30;1.98;;;;;;;19.27;38.38;97898.69;5111228;28;20050;-57
2021/12/27 07:38:37;;;;;;;2.90;2.10;;;;;;;19.27;38.41;97900.66;5111231;28;20050;-57
2021/12/27 07:41:03;;;;;;;4.00;2.28;;;;;;;19.25;38.02;97904.63;5111115;28;20135;-57
2021/12/27 07:43:28;;;;;;;3.00;2.15;;;;;;;19.25;38.16;97909.38;5111023;28;20130;-57
2021/12/27 07:45:54;;;;;;;2.92;2.10;;;;;;;19.23;38.39;97906.22;5111219;28;20044;-57
2021/12/27 07:48:19;;;;;;;2.92;2.03;;;;;;;19.24;38.38;97905.81;5111152;28;20105;-57
2021/12/27 07:50:45;;;;;;;2.80;1.80;;;;;;;19.24;38.17;97908.59;5111038;28;20457;-57
2021/12/27 07:53:11;;;;;;;2.70;1.80;;;;;;;19.24;38.25;97919.69;5110989;28;20408;-57
2021/12/27 07:55:36;;;;;;;3.40;1.83;;;;;;;19.27;38.36;97931.16;5111094;28;20071;-57
2021/12/27 07:58:02;;;;;;;3.50;2.25;;;;;;;19.23;38.47;97937.50;5110974;28;20085;-57
2021/12/27 08:00:28;;;;;;;3.03;2.05;;;;;;;19.25;38.25;97951.75;5110966;28;20039;-57
2021/12/27 08:02:55;;;;;;;2.70;1.88;;;;;;;19.25;38.50;97945.41;5110769;28;20484;-57
2021/12/27 08:05:20;;;;;;;3.30;2.10;;;;;;;19.21;38.44;97945.41;5110730;28;20116;-57
2021/12/27 08:07:46;;;;;;;2.78;1.75;;;;;;;19.26;38.59;97955.31;5110874;28;20453;-57
2021/12/27 08:10:14;;;;;;;3.15;2.00;;;;;;;19.25;38.54;97962.84;5110738;28;20222;-57
2021/12/27 08:12:40;;;;;;;2.83;2.08;;;;;;;19.26;38.49;97963.63;5110821;28;20063;-57
2021/12/27 08:15:08;;;;;;;3.22;2.15;;;;;;;19.26;38.36;97983.03;5110728;28;20127;-57
2021/12/27 08:17:33;;;;;;;3.42;2.22;;;;;;;19.29;38.48;97989.75;5110573;28;20040;-57
2021/12/27 08:19:59;;;;;;;2.92;1.90;;;;;;;19.27;38.62;97992.94;5110701;28;20043;-57
2021/12/27 08:22:25;;;;;;;3.30;2.15;;;;;;;19.27;38.15;97992.13;5110355;28;20050;-57
2021/12/27 08:24:51;;;;;;;3.58;2.17;;;;;;;19.27;38.54;97997.69;5110507;28;20047;-57
2021/12/27 08:27:19;;;;;;;3.20;2.10;;;;;;;19.27;38.50;98008.78;5110412;28;20108;-57
2021/12/27 08:29:45;;;;;;;2.90;2.10;;;;;;;19.25;38.20;98012.75;5110252;28;20048;-57
2021/12/27 08:32:10;;;;;;;3.30;2.00;;;;;;;19.28;38.58;98022.22;5110267;28;20040;-57
2021/12/27 08:34:36;;;;;;;2.60;1.90;;;;;;;19.28;38.56;98035.31;5110271;28;20051;-57
2021/12/27 08:37:01;;;;;;;3.30;2.15;;;;;;;19.27;38.54;98047.56;5110300;28;20036;-57
2021/12/27 08:39:27;;;;;;;3.15;2.10;;;;;;;19.25;38.40;98040.47;5110259;28;20515;-57
2021/12/27 08:41:52;;;;;;;2.78;1.85;;;;;;;19.25;38.67;98062.63;5110443;28;20113;-57
2021/12/27 08:44:18;;;;;;;3.50;2.25;;;;;;;19.28;38.54;98071.34;5110222;28;20138;-57
2021/12/27 08:46:43;;;;;;;3.35;2.00;;;;;;;19.25;38.54;98056.31;5110375;28;20407;-57
2021/12/27 08:49:09;;;;;;;3.50;2.05;;;;;;;19.28;38.62;98065.78;5110209;28;20062;-57
2021/12/27 08:51:35;;;;;;;2.85;1.70;;;;;;;19.26;38.73;98063.44;5110111;28;20040;-57
2021/12/27 08:54:01;;;;;;;2.67;1.73;;;;;;;19.29;38.66;98078.47;5110163;28;20100;-57
2021/12/27 08:56:26;;;;;;;3.20;2.08;;;;;;;19.28;38.57;98076.88;5110136;28;20039;-57
2021/12/27 08:58:52;;;;;;;3.47;2.15;;;;;;;19.27;38.94;98083.63;5110215;28;20457;-57
2021/12/27 09:01:17;;;;;;;3.00;1.80;;;;;;;19.28;38.77;98093.50;5110285;28;20052;-57
2021/12/27 09:03:43;;;;;;;3.20;2.00;;;;;;;19.29;38.79;98095.09;5110003;28;20039;-57
2021/12/27 09:06:09;;;;;;;3.40;1.95;;;;;;;19.28;38.88;98099.06;5110084;28;20040;-57
2021/12/27 09:08:34;;;;;;;3.13;2.10;;;;;;;19.28;38.70;98099.84;5109846;28;20403;-57
2021/12/27 09:11:00;;;;;;;2.83;2.00;;;;;;;19.27;38.83;98089.94;5076883;28;20496;-66
2021/12/27 09:13:28;;;;;;;3.28;1.85;;;;;;;19.25;38.74;98095.91;5109862;28;20514;-66
2021/12/27 09:15:54;;;;;;;3.75;2.20;;;;;;;19.27;38.77;98089.16;5109777;28;20051;-66
2021/12/27 09:18:20;;;;;;;2.53;1.92;;;;;;;19.25;38.79;98070.94;5109835;28;20044;-66
2021/12/27 09:20:45;;;;;;;2.72;1.75;;;;;;;19.24;38.96;98082.44;5109751;28;20043;-66
2021/12/27 09:23:11;;;;;;;2.45;1.80;;;;;;;19.27;38.79;98080.84;5109555;28;20047;-66
2021/12/27 09:25:36;;;;;;;3.10;1.77;;;;;;;19.25;38.94;98068.19;5109928;28;20085;-66
2021/12/27 09:28:02;;;;;;;2.80;1.92;;;;;;;19.28;38.84;98082.44;5109638;28;20419;-67
2021/12/27 09:30:27;;;;;;;2.85;2.00;;;;;;;19.28;38.95;98082.44;5110048;28;20431;-67
2021/12/27 09:32:57;;;;;;;2.88;1.90;;;;;;;19.25;38.92;98073.72;5110132;28;20036;-67
2021/12/27 09:35:22;;;;;;;3.08;1.80;;;;;;;19.25;38.79;98087.59;5093887;28;20126;-67
2021/12/27 09:37:48;;;;;;;2.83;1.80;;;;;;;19.25;38.84;98084.81;5113914;28;20147;-66
2021/12/27 09:40:14;;;;;;;2.55;1.80;;;;;;;19.25;38.87;98082.03;5113281;28;20050;-66
2021/12/27 09:42:39;;;;;;;2.70;2.00;;;;;;;19.24;38.96;98074.91;5113183;28;20101;-66
2021/12/27 09:45:07;;;;;;;3.13;1.90;;;;;;;19.26;38.93;98080.06;5113215;28;20051;-66
2021/12/27 09:47:34;;;;;;;2.83;1.70;;;;;;;19.27;39.11;98069.75;5113000;28;20130;-66
2021/12/27 09:50:00;;;;;;;3.15;2.13;;;;;;;19.27;38.99;98073.31;5112789;28;20051;-66
2021/12/27 09:52:26;;;;;;;2.55;1.65;;;;;;;19.27;39.10;98072.53;5112944;28;20058;-66
2021/12/27 09:54:51;;;;;;;2.97;1.83;;;;;;;19.27;39.25;98086.38;5112938;28;20039;-66
2021/12/27 09:57:17;;;;;;;3.00;1.73;;;;;;;19.28;39.12;98082.44;5112848;28;20123;-66
2021/12/27 09:59:42;;;;;;;3.53;2.15;;;;;;;19.28;39.18;98082.44;5112818;28;20044;-66
2021/12/27 10:02:08;;;;;;;2.70;1.80;;;;;;;19.27;39.14;98076.09;5112856;28;20048;-57
2021/12/27 10:04:34;;;;;;;2.90;1.75;;;;;;;19.27;39.07;98072.53;5112820;28;20048;-57
2021/12/27 10:06:59;;;;;;;3.30;1.88;;;;;;;19.23;39.13;98073.34;5112804;28;20079;-66
2021/12/27 10:09:24;;;;;;;3.58;2.00;;;;;;;19.22;39.17;98052.34;5112575;28;20077;-57
2021/12/27 10:11:50;;;;;;;2.50;1.65;;;;;;;19.28;39.56;98060.25;5112402;28;20441;-57
2021/12/27 10:14:21;;;;;;;2.88;1.90;;;;;;;19.25;39.14;98073.72;5112569;28;20526;-57
2021/12/27 10:17:05;;;;;;;3.67;2.10;;;;;;;19.24;39.11;98077.69;5112583;28;20073;-57
2021/12/27 10:19:33;;;;;;;3.05;2.00;;;;;;;19.26;39.29;98074.50;5112357;28;20527;-57
2021/12/27 10:21:58;;;;;;;3.50;1.90;;;;;;;19.27;39.32;98075.31;5112443;28;20044;-57
2021/12/27 10:24:27;;;;;;;3.15;2.15;;;;;;;19.24;39.25;98077.69;5112167;28;20096;-57
2021/12/27 10:26:54;;;;;;;3.20;2.03;;;;;;;19.24;39.43;98077.69;5112210;28;20047;-66
2021/12/27 10:29:27;;;;;;;3.35;1.90;;;;;;;19.24;39.39;98088.78;5112511;28;20120;-66
2021/12/27 10:31:54;;;;;;;3.83;2.10;;;;;;;19.24;39.26;98085.22;5112216;28;20092;-66
2021/12/27 10:34:21;;;;;;;3.22;1.92;;;;;;;19.43;39.06;98090.38;5112248;28;20051;-66
2021/12/27 10:37:03;;;;;;;2.60;1.80;;;;;;;20.22;37.58;98081.88;5112030;28;20052;-66
2021/12/27 10:39:51;;;;;;;3.05;1.95;;;;;;;20.06;37.87;98098.97;5112096;28;20043;-66
2021/12/27 10:42:29;;;;;;;3.63;2.50;;;;;;;19.91;38.15;98087.13;5112059;28;20040;-66
2021/12/27 10:44:58;;;;;;;3.00;2.20;;;;;;;19.79;38.32;98096.69;5111999;28;20047;-66
2021/12/27 10:47:36;;;;;;;3.83;2.10;;;;;;;19.67;38.66;98091.53;5110577;28;20036;-66
2021/12/27 10:50:20;;;;;;;3.25;2.05;;;;;;;19.57;38.86;98099.81;5112058;28;20476;-66
2021/12/27 10:53:01;;;;;;;2.80;2.10;;;;;;;19.49;39.01;98099.03;5111854;28;20503;-66
2021/12/27 10:55:43;;;;;;;3.33;2.25;;;;;;;19.43;39.24;98107.00;5111833;28;20051;-66
2021/12/27 10:58:12;;;;;;;3.13;2.03;;;;;;;19.42;39.24;98112.91;5111749;28;20408;-65
2021/12/27 11:00:38;;;;;;;3.50;2.40;;;;;;;19.38;39.27;98103.81;5111874;28;20400;-66
2021/12/27 11:03:04;;;;;;;2.88;2.05;;;;;;;19.36;39.43;98106.19;5111662;28;20077;-66
2021/12/27 11:05:33;;;;;;;3.25;2.28;;;;;;;19.34;39.46;98120.44;5111823;28;20040;-66
2021/12/27 11:08:03;;;;;;;3.30;2.10;;;;;;;19.32;39.51;98130.34;5111757;28;20035;-66
2021/12/27 11:10:32;;;;;;;3.10;1.92;;;;;;;19.32;39.60;98147.00;5111557;28;20533;-66
2021/12/27 11:12:59;;;;;;;3.70;2.30;;;;;;;19.32;39.61;98122.84;5111598;28;20270;-66
2021/12/27 11:15:29;;;;;;;3.35;1.83;;;;;;;19.32;39.69;98113.72;5111465;28;20043;-66
2021/12/27 11:17:55;;;;;;;3.92;2.55;;;;;;;19.27;39.73;98120.44;5111450;28;20048;-66
2021/12/27 11:20:22;;;;;;;3.25;2.05;;;;;;;19.29;39.64;98129.19;5111469;28;20126;-65
2021/12/27 11:22:51;;;;;;;3.92;2.38;;;;;;;19.29;39.81;98142.22;5111311;28;20039;-66
2021/12/27 11:25:26;;;;;;;3.35;2.28;;;;;;;19.28;39.67;98135.09;5111268;28;20148;-66
2021/12/27 11:27:52;;;;;;;3.05;2.08;;;;;;;19.28;39.73;98133.13;5111198;28;20047;-65
2021/12/27 11:30:23;;;;;;;3.22;2.13;;;;;;;19.29;39.93;98139.44;5111420;28;20130;-66
2021/12/27 11:33:00;;;;;;;3.55;2.15;;;;;;;19.29;39.74;98136.69;5111478;28;20036;-66
2021/12/27 11:35:31;;;;;;;3.35;2.15;;;;;;;19.29;39.97;98145.00;5111444;28;20601;-66
2021/12/27 11:37:59;;;;;;;3.28;2.17;;;;;;;19.28;39.84;98129.56;5111356;28;20519;-66